createdAt,value
2019-05-13T00:01:00.291Z,3.00
2019-05-13T00:03:28.750Z,3.00
2019-05-13T00:05:57.155Z,2.90
2019-05-13T00:08:25.661Z,2.90
2019-05-13T00:10:54.356Z,2.80
2019-05-13T00:13:23.753Z,2.80
2019-05-13T00:15:54.204Z,2.80
2019-05-13T00:18:23.575Z,2.80
2019-05-13T00:20:54.173Z,2.80
2019-05-13T00:23:23.394Z,2.90
2019-05-13T00:25:54.261Z,2.90
2019-05-13T00:28:23.496Z,2.80
2019-05-13T00:30:54.112Z,2.70
2019-05-13T00:33:24.265Z,2.70
2019-05-13T00:35:53.434Z,2.60
2019-05-13T00:38:24.382Z,2.50
2019-05-13T00:40:53.921Z,2.50
2019-05-13T00:43:24.344Z,2.50
2019-05-13T00:45:53.403Z,2.40
2019-05-13T00:48:23.381Z,2.40
2019-05-13T00:50:54.273Z,2.40
2019-05-13T00:53:23.755Z,2.40
2019-05-13T00:55:53.598Z,2.30
2019-05-13T00:58:24.115Z,2.30
2019-05-13T01:00:54.436Z,2.30
2019-05-13T01:03:26.345Z,2.40
2019-05-13T01:05:53.532Z,2.40
2019-05-13T01:08:23.713Z,2.50
2019-05-13T01:10:53.680Z,2.40
2019-05-13T01:13:23.745Z,2.40
2019-05-13T01:15:59.802Z,2.40
2019-05-13T01:18:28.190Z,2.40
2019-05-13T01:20:56.906Z,2.30
2019-05-13T01:23:25.297Z,2.30
2019-05-13T01:25:54.407Z,2.30
2019-05-13T01:28:23.925Z,2.30
2019-05-13T01:30:53.959Z,2.30
2019-05-13T01:33:23.576Z,2.30
2019-05-13T01:35:53.832Z,2.40
2019-05-13T01:38:24.150Z,2.40
2019-05-13T01:40:53.937Z,2.50
2019-05-13T01:43:24.503Z,2.50
2019-05-13T01:45:53.662Z,2.50
2019-05-13T01:48:24.058Z,2.50
2019-05-13T01:50:53.395Z,2.50
2019-05-13T01:53:24.206Z,2.50
2019-05-13T01:55:53.243Z,2.40
2019-05-13T01:58:23.599Z,2.40
2019-05-13T02:00:54.918Z,2.40
2019-05-13T02:03:24.594Z,2.30
2019-05-13T02:05:54.421Z,2.30
2019-05-13T02:08:24.525Z,2.30
2019-05-13T02:10:54.977Z,2.30
2019-05-13T02:13:24.662Z,2.20
2019-05-13T02:15:55.193Z,2.20
2019-05-13T02:18:24.719Z,2.10
2019-05-13T02:20:55.508Z,2.00
2019-05-13T02:23:24.076Z,2.00
2019-05-13T02:25:54.121Z,2.00
2019-05-13T02:28:24.685Z,2.00
2019-05-13T02:30:56.142Z,2.00
2019-05-13T02:33:24.262Z,2.00
2019-05-13T02:35:53.325Z,2.00
2019-05-13T02:38:26.269Z,1.90
2019-05-13T02:40:52.987Z,1.90
2019-05-13T02:43:23.141Z,1.90
2019-05-13T02:45:53.535Z,1.90
2019-05-13T02:48:23.500Z,1.90
2019-05-13T02:50:53.219Z,1.90
2019-05-13T02:53:23.650Z,1.90
2019-05-13T02:55:52.737Z,1.90
2019-05-13T02:58:24.376Z,1.90
2019-05-13T03:00:53.416Z,1.90
2019-05-13T03:03:23.093Z,1.90
2019-05-13T03:05:52.759Z,1.90
2019-05-13T03:08:35.238Z,1.90
2019-05-13T03:10:52.984Z,1.80
2019-05-13T03:13:23.398Z,1.80
2019-05-13T03:16:16.322Z,1.80
2019-05-13T03:18:44.824Z,1.80
2019-05-13T03:21:13.449Z,1.70
2019-05-13T03:23:44.190Z,1.70
2019-05-13T03:26:13.108Z,1.70
2019-05-13T03:28:43.522Z,1.60
2019-05-13T03:31:16.924Z,1.60
2019-05-13T03:33:46.798Z,1.50
2019-05-13T03:36:16.414Z,1.50
2019-05-13T03:38:59.712Z,1.40
2019-05-13T03:41:16.474Z,1.40
2019-05-13T03:43:44.883Z,1.40
2019-05-13T03:46:13.648Z,1.30
2019-05-13T03:48:44.115Z,1.30
2019-05-13T03:51:13.633Z,1.20
2019-05-13T03:53:43.177Z,1.20
2019-05-13T03:56:13.098Z,1.20
2019-05-13T03:58:43.329Z,1.20
2019-05-13T04:01:13.023Z,1.30
2019-05-13T04:03:44.060Z,1.30
2019-05-13T04:06:13.521Z,1.30
2019-05-13T04:08:43.626Z,1.30
2019-05-13T04:11:12.904Z,1.30
2019-05-13T04:13:43.002Z,1.30
2019-05-13T04:16:12.694Z,1.30
2019-05-13T04:18:42.817Z,1.30
2019-05-13T04:21:13.109Z,1.40
2019-05-13T04:23:42.863Z,1.40
2019-05-13T04:26:14.767Z,1.40
2019-05-13T04:28:43.462Z,1.40
2019-05-13T04:31:14.166Z,1.40
2019-05-13T04:33:42.914Z,1.40
2019-05-13T04:36:13.433Z,1.40
2019-05-13T04:38:44.287Z,1.50
2019-05-13T04:41:12.125Z,1.50
2019-05-13T04:43:43.627Z,1.60
2019-05-13T04:46:13.914Z,1.60
2019-05-13T04:48:44.240Z,1.70
2019-05-13T04:51:13.557Z,1.70
2019-05-13T04:53:42.501Z,1.80
2019-05-13T04:56:13.717Z,1.80
2019-05-13T04:58:42.893Z,1.80
2019-05-13T05:01:52.193Z,1.90
2019-05-13T05:04:34.733Z,1.90
2019-05-13T05:07:23.669Z,2.00
2019-05-13T05:10:16.797Z,2.10
2019-05-13T05:12:45.135Z,2.20
2019-05-13T05:15:45.710Z,2.30
2019-05-13T05:18:42.133Z,2.40
2019-05-13T05:21:28.903Z,2.50
2019-05-13T05:24:03.407Z,2.60
2019-05-13T05:27:12.037Z,2.80
2019-05-13T05:30:14.819Z,2.90
2019-05-13T05:33:02.084Z,3.00
2019-05-13T05:35:42.706Z,3.20
2019-05-13T05:38:31.775Z,3.20
2019-05-13T05:41:02.958Z,3.30
2019-05-13T05:43:33.285Z,3.50
2019-05-13T05:46:03.904Z,3.60
2019-05-13T05:48:34.372Z,3.80
2019-05-13T05:51:04.335Z,3.90
2019-05-13T05:53:34.075Z,4.20
2019-05-13T05:56:04.009Z,4.40
2019-05-13T05:58:34.343Z,4.60
2019-05-13T06:01:03.972Z,4.80
2019-05-13T06:03:35.002Z,5.00
2019-05-13T06:06:06.262Z,5.20
2019-05-13T06:08:34.652Z,5.30
2019-05-13T06:11:03.428Z,5.50
2019-05-13T06:13:31.883Z,5.60
2019-05-13T06:16:01.820Z,5.80
2019-05-13T06:18:31.992Z,6.00
2019-05-13T06:21:01.724Z,6.10
2019-05-13T06:23:31.274Z,6.30
2019-05-13T06:26:01.952Z,6.40
2019-05-13T06:28:32.184Z,6.60
2019-05-13T06:31:02.560Z,6.70
2019-05-13T06:33:31.648Z,6.90
2019-05-13T06:36:01.251Z,7.10
2019-05-13T06:38:31.647Z,7.20
2019-05-13T06:41:04.365Z,7.40
2019-05-13T06:43:31.513Z,7.60
2019-05-13T06:46:01.871Z,7.80
2019-05-13T06:48:32.170Z,8.00
2019-05-13T06:51:02.495Z,8.10
2019-05-13T06:53:32.191Z,8.30
2019-05-13T06:56:01.604Z,8.50
2019-05-13T06:58:32.330Z,8.60
2019-05-13T07:01:03.116Z,8.70
2019-05-13T07:03:32.254Z,8.80
2019-05-13T07:06:01.793Z,9.00
2019-05-13T07:08:31.394Z,9.10
2019-05-13T07:11:16.638Z,9.20
2019-05-13T07:13:32.286Z,9.30
2019-05-13T07:16:01.371Z,9.40
2019-05-13T07:18:32.133Z,9.50
2019-05-13T07:21:02.180Z,9.60
2019-05-13T07:23:31.872Z,9.70
2019-05-13T07:26:01.814Z,9.80
2019-05-13T07:28:32.351Z,9.90
2019-05-13T07:31:02.127Z,9.90
2019-05-13T07:33:32.190Z,10.00
2019-05-13T07:36:03.272Z,10.10
2019-05-13T07:38:32.504Z,10.20
2019-05-13T07:41:04.912Z,10.30
2019-05-13T07:43:33.470Z,10.30
2019-05-13T07:46:02.307Z,10.40
2019-05-13T07:48:31.889Z,10.50
2019-05-13T07:51:04.297Z,10.50
2019-05-13T07:53:32.239Z,10.60
2019-05-13T07:56:01.994Z,10.70
2019-05-13T07:58:36.562Z,10.80
2019-05-13T08:01:02.405Z,10.80
2019-05-13T08:03:31.711Z,10.90
2019-05-13T08:06:02.043Z,10.90
2019-05-13T08:08:32.349Z,11.00
2019-05-13T08:11:01.202Z,11.10
2019-05-13T08:13:31.475Z,11.10
2019-05-13T08:16:01.923Z,11.10
2019-05-13T08:18:31.859Z,11.20
2019-05-13T08:21:02.048Z,11.30
2019-05-13T08:23:32.398Z,11.40
2019-05-13T08:26:02.151Z,11.50
2019-05-13T08:28:32.333Z,11.50
2019-05-13T08:31:02.091Z,11.60
2019-05-13T08:33:32.101Z,11.60
2019-05-13T08:36:01.669Z,11.70
2019-05-13T08:38:31.933Z,11.80
2019-05-13T08:41:01.917Z,11.80
2019-05-13T08:43:31.635Z,11.90
2019-05-13T08:46:01.912Z,12.00
2019-05-13T08:48:32.316Z,12.00
2019-05-13T08:51:03.237Z,12.10
2019-05-13T08:53:31.723Z,12.20
2019-05-13T08:56:01.721Z,12.20
2019-05-13T08:58:32.120Z,12.40
2019-05-13T09:01:02.293Z,12.50
2019-05-13T09:03:32.620Z,12.70
2019-05-13T09:06:02.768Z,12.80
2019-05-13T09:08:32.052Z,13.00
2019-05-13T09:11:01.621Z,13.20
2019-05-13T09:13:32.764Z,13.20
2019-05-13T09:16:02.483Z,13.30
2019-05-13T09:18:32.098Z,13.40
2019-05-13T09:21:02.521Z,13.60
2019-05-13T09:23:31.483Z,13.90
2019-05-13T09:26:02.314Z,14.00
2019-05-13T09:28:32.468Z,14.20
2019-05-13T09:31:02.057Z,14.50
2019-05-13T09:33:32.544Z,14.70
2019-05-13T09:36:02.175Z,15.00
2019-05-13T09:38:32.593Z,15.40
2019-05-13T09:41:01.871Z,15.70
2019-05-13T09:43:31.543Z,16.10
2019-05-13T09:46:01.632Z,16.30
2019-05-13T09:48:31.964Z,16.40
2019-05-13T09:51:02.361Z,16.50
2019-05-13T09:53:32.586Z,16.50
2019-05-13T09:56:02.375Z,16.50
2019-05-13T09:58:32.997Z,16.20
2019-05-13T10:01:01.098Z,15.90
2019-05-13T10:03:32.944Z,15.70
2019-05-13T10:06:02.404Z,15.50
2019-05-13T10:08:32.556Z,15.60
2019-05-13T10:11:01.683Z,15.60
2019-05-13T10:13:31.752Z,15.50
2019-05-13T10:16:00.451Z,15.60
2019-05-13T10:18:28.861Z,15.70
2019-05-13T10:20:59.315Z,15.80
2019-05-13T10:23:28.279Z,15.80
2019-05-13T10:26:02.960Z,15.70
2019-05-13T10:28:32.106Z,15.40
2019-05-13T10:31:00.772Z,15.20
2019-05-13T10:33:31.625Z,15.00
2019-05-13T10:36:02.417Z,14.80
2019-05-13T10:38:32.353Z,14.70
2019-05-13T10:41:02.882Z,14.80
2019-05-13T10:43:32.015Z,14.90
2019-05-13T10:46:02.519Z,14.90
2019-05-13T10:48:30.990Z,14.90
2019-05-13T10:50:59.895Z,14.80
2019-05-13T10:53:32.125Z,14.70
2019-05-13T10:56:02.467Z,14.50
2019-05-13T10:58:30.107Z,14.40
2019-05-13T11:00:58.907Z,14.40
2019-05-13T11:03:27.330Z,14.30
2019-05-13T11:05:55.731Z,14.30
2019-05-13T11:08:24.126Z,14.40
2019-05-13T11:10:53.095Z,14.50
2019-05-13T11:13:23.185Z,14.50
2019-05-13T11:15:57.376Z,14.70
2019-05-13T11:18:24.455Z,14.90
2019-05-13T11:20:52.180Z,15.10
2019-05-13T11:23:23.189Z,15.30
2019-05-13T11:25:52.310Z,15.40
2019-05-13T11:28:20.896Z,15.30
2019-05-13T11:30:49.486Z,15.10
2019-05-13T11:33:21.568Z,15.10
2019-05-13T11:35:52.105Z,15.10
2019-05-13T11:38:22.084Z,15.20
2019-05-13T11:40:52.462Z,15.30
2019-05-13T11:43:21.464Z,15.40
2019-05-13T11:45:50.959Z,15.40
2019-05-13T11:48:23.159Z,15.40
2019-05-13T11:50:53.919Z,15.50
2019-05-13T11:53:32.591Z,15.50
2019-05-13T11:55:52.293Z,15.60
2019-05-13T11:58:21.023Z,15.60
2019-05-13T12:00:53.154Z,15.50
2019-05-13T12:03:23.162Z,15.40
2019-05-13T12:05:53.736Z,15.40
2019-05-13T12:08:22.954Z,15.40
2019-05-13T12:10:52.224Z,15.50
2019-05-13T12:13:23.270Z,15.70
2019-05-13T12:15:53.873Z,15.90
2019-05-13T12:18:23.595Z,16.10
2019-05-13T12:20:54.107Z,16.10
2019-05-13T12:23:21.485Z,16.10
2019-05-13T12:25:52.593Z,16.10
2019-05-13T12:28:20.009Z,16.20
2019-05-13T12:30:48.712Z,16.10
2019-05-13T12:33:17.177Z,15.90
2019-05-13T12:35:45.674Z,15.70
2019-05-13T12:38:14.136Z,15.50
2019-05-13T12:40:43.105Z,15.40
2019-05-13T12:43:13.299Z,15.50
2019-05-13T12:45:43.223Z,15.60
2019-05-13T12:48:14.108Z,15.80
2019-05-13T12:50:43.156Z,15.90
2019-05-13T12:53:12.744Z,15.90
2019-05-13T12:55:41.973Z,16.00
2019-05-13T12:58:12.054Z,16.00
2019-05-13T13:00:43.431Z,15.80
2019-05-13T13:03:13.246Z,15.80
2019-05-13T13:05:43.131Z,15.80
2019-05-13T13:08:24.006Z,15.70
2019-05-13T13:10:42.319Z,15.70
2019-05-13T13:13:10.896Z,15.80
2019-05-13T13:15:46.735Z,16.00
2019-05-13T13:18:13.942Z,16.20
2019-05-13T13:20:42.111Z,16.30
2019-05-13T13:23:12.661Z,16.40
2019-05-13T13:25:43.473Z,16.50
2019-05-13T13:28:15.047Z,16.40
2019-05-13T13:30:43.902Z,16.50
2019-05-13T13:33:15.133Z,16.50
2019-05-13T13:35:45.186Z,16.60
2019-05-13T13:38:11.163Z,16.60
2019-05-13T13:40:40.786Z,16.60
2019-05-13T13:43:12.318Z,16.70
2019-05-13T13:48:13.370Z,16.70
2019-05-13T13:50:43.943Z,16.40
2019-05-13T13:53:14.107Z,16.30
2019-05-13T13:55:44.358Z,16.30
2019-05-13T13:58:14.330Z,16.40
2019-05-13T14:00:52.541Z,16.60
2019-05-13T14:03:12.370Z,16.70
2019-05-13T14:05:42.909Z,16.50
2019-05-13T14:08:12.612Z,16.50
2019-05-13T14:10:42.072Z,16.50
2019-05-13T14:13:12.491Z,16.60
2019-05-13T14:15:41.778Z,16.60
2019-05-13T14:18:11.423Z,16.60
2019-05-13T14:20:42.715Z,16.70
2019-05-13T14:23:12.619Z,16.80
2019-05-13T14:25:42.089Z,17.00
2019-05-13T14:28:10.596Z,17.20
2019-05-13T14:30:39.006Z,17.30
2019-05-13T14:33:07.420Z,17.30
2019-05-13T14:35:35.907Z,17.50
2019-05-13T14:38:04.350Z,17.80
2019-05-13T14:40:32.777Z,18.30
2019-05-13T14:43:03.658Z,18.80
2019-05-13T14:45:32.076Z,19.20
2019-05-13T14:48:01.668Z,19.50
2019-05-13T14:50:31.876Z,19.80
2019-05-13T14:53:01.541Z,20.00
2019-05-13T14:55:32.036Z,20.20
2019-05-13T14:58:01.532Z,20.40
2019-05-13T15:00:32.654Z,20.60
2019-05-13T15:03:02.968Z,20.70
2019-05-13T15:05:31.404Z,20.80
2019-05-13T15:07:59.978Z,20.90
2019-05-13T15:10:28.530Z,21.00
2019-05-13T15:12:58.774Z,20.80
2019-05-13T15:15:27.219Z,20.60
2019-05-13T15:17:55.615Z,20.20
2019-05-13T15:20:24.015Z,19.80
2019-05-13T15:22:52.494Z,19.30
2019-05-13T15:25:22.131Z,18.90
2019-05-13T15:27:52.776Z,18.50
2019-05-13T15:30:22.029Z,18.20
2019-05-13T15:32:52.524Z,18.10
2019-05-13T15:35:20.963Z,18.10
2019-05-13T15:37:49.374Z,18.00
2019-05-13T15:40:17.878Z,17.90
2019-05-13T15:42:46.553Z,17.80
2019-05-13T15:45:15.108Z,17.70
2019-05-13T15:47:43.579Z,17.60
2019-05-13T15:50:12.429Z,17.40
2019-05-13T15:52:43.176Z,17.40
2019-05-13T15:55:12.000Z,17.50
2019-05-13T15:57:42.768Z,17.80
2019-05-13T16:00:12.540Z,18.40
2019-05-13T16:02:42.651Z,18.90
2019-05-13T16:05:12.214Z,19.10
2019-05-13T16:07:41.829Z,19.40
2019-05-13T16:10:11.305Z,19.70
2019-05-13T16:12:39.932Z,19.70
2019-05-13T16:15:13.116Z,19.50
2019-05-13T16:17:44.124Z,19.30
2019-05-13T16:20:10.611Z,19.50
2019-05-13T16:22:38.985Z,19.60
2019-05-13T16:25:08.010Z,19.60
2019-05-13T16:27:36.422Z,19.30
2019-05-13T16:30:07.749Z,18.90
2019-05-13T16:32:36.148Z,18.50
2019-05-13T16:35:06.927Z,18.10
2019-05-13T16:37:35.386Z,17.80
2019-05-13T16:40:06.943Z,17.60
2019-05-13T16:42:35.349Z,17.40
2019-05-13T16:45:05.170Z,17.20
2019-05-13T16:47:33.573Z,17.00
2019-05-13T16:50:02.687Z,16.90
2019-05-13T16:52:31.344Z,16.80
2019-05-13T16:55:02.552Z,16.90
2019-05-13T16:57:31.626Z,17.00
2019-05-13T17:00:02.248Z,17.50
2019-05-13T17:02:30.350Z,18.40
2019-05-13T17:04:58.798Z,19.40
2019-05-13T17:07:27.218Z,20.00
2019-05-13T17:09:55.607Z,20.00
2019-05-13T17:12:24.031Z,19.50
2019-05-13T17:14:52.556Z,18.80
2019-05-13T17:17:21.102Z,18.20
2019-05-13T17:19:53.540Z,17.60
2019-05-13T17:22:19.615Z,17.30
2019-05-13T17:24:48.027Z,17.20
2019-05-13T17:27:16.438Z,17.30
2019-05-13T17:29:45.025Z,17.30
2019-05-13T17:32:13.424Z,17.30
2019-05-13T17:34:45.748Z,17.30
2019-05-13T17:37:12.014Z,17.40
2019-05-13T17:39:41.552Z,17.60
2019-05-13T17:42:11.950Z,17.80
2019-05-13T17:44:45.995Z,18.00
2019-05-13T17:47:11.638Z,18.30
2019-05-13T17:49:41.865Z,18.80
2019-05-13T17:52:11.537Z,19.50
2019-05-13T17:54:42.605Z,20.20
2019-05-13T17:57:12.213Z,20.90
2019-05-13T17:59:41.833Z,21.50
2019-05-13T18:02:11.815Z,21.90
2019-05-13T18:04:41.542Z,22.20
2019-05-13T18:07:12.078Z,22.40
2019-05-13T18:09:42.146Z,22.40
2019-05-13T18:12:11.568Z,22.00
2019-05-13T18:14:41.233Z,21.20
2019-05-13T18:17:12.388Z,20.20
2019-05-13T18:19:41.975Z,19.00
2019-05-13T18:22:11.456Z,18.00
2019-05-13T18:24:40.091Z,17.10
2019-05-13T18:27:08.493Z,16.30
2019-05-13T18:29:36.953Z,15.70
2019-05-13T18:32:05.458Z,15.10
2019-05-13T18:34:33.849Z,14.70
2019-05-13T18:37:03.882Z,14.20
2019-05-13T18:39:32.479Z,13.90
2019-05-13T18:42:00.864Z,13.50
2019-05-13T18:44:31.491Z,13.30
2019-05-13T18:47:01.466Z,13.00
2019-05-13T18:49:31.830Z,12.70
2019-05-13T18:52:00.047Z,12.40
2019-05-13T18:54:28.502Z,12.20
2019-05-13T18:56:57.149Z,11.90
2019-05-13T18:59:25.571Z,11.70
2019-05-13T19:01:54.648Z,11.40
2019-05-13T19:04:23.024Z,11.20
2019-05-13T19:06:51.739Z,11.10
2019-05-13T19:09:21.765Z,10.90
2019-05-13T19:11:51.525Z,10.70
2019-05-13T19:14:21.267Z,10.60
2019-05-13T19:16:49.742Z,10.50
2019-05-13T19:19:19.995Z,10.30
2019-05-13T19:21:50.991Z,10.20
2019-05-13T19:24:18.707Z,10.10
2019-05-13T19:26:47.174Z,9.90
2019-05-13T19:29:15.582Z,9.80
2019-05-13T19:31:43.994Z,9.70
2019-05-13T19:34:12.836Z,9.60
2019-05-13T19:36:41.285Z,9.50
2019-05-13T19:39:11.376Z,9.40
2019-05-13T19:41:42.080Z,9.30
2019-05-13T19:44:10.686Z,9.20
2019-05-13T19:46:41.897Z,9.20
2019-05-13T19:49:12.100Z,9.20
2019-05-13T19:51:41.570Z,9.10
2019-05-13T19:54:11.722Z,9.00
2019-05-13T19:56:40.380Z,9.00
2019-05-13T19:59:08.871Z,8.90
2019-05-13T20:01:37.813Z,8.80
2019-05-13T20:04:06.394Z,8.80
2019-05-13T20:06:34.867Z,8.70
2019-05-13T20:09:05.398Z,8.70
2019-05-13T20:11:33.792Z,8.60
2019-05-13T20:14:02.363Z,8.50
2019-05-13T20:16:32.104Z,8.40
2019-05-13T20:19:01.274Z,8.30
2019-05-13T20:21:31.979Z,8.30
2019-05-13T20:24:00.111Z,8.30
2019-05-13T20:26:28.514Z,8.20
2019-05-13T20:28:56.924Z,8.10
2019-05-13T20:31:25.463Z,8.10
2019-05-13T20:33:54.115Z,8.00
2019-05-13T20:36:22.545Z,7.90
2019-05-13T20:38:51.699Z,7.70
2019-05-13T20:41:22.179Z,7.60
2019-05-13T20:43:52.045Z,7.40
2019-05-13T20:46:22.956Z,7.30
2019-05-13T20:48:51.975Z,7.10
2019-05-13T20:51:21.983Z,7.00
2019-05-13T20:53:51.847Z,6.90
2019-05-13T20:56:21.414Z,6.80
2019-05-13T20:58:51.609Z,6.60
2019-05-13T21:01:20.081Z,6.50
2019-05-13T21:03:48.479Z,6.40
2019-05-13T21:06:16.928Z,6.30
2019-05-13T21:08:45.343Z,6.10
2019-05-13T21:11:13.730Z,6.00
2019-05-13T21:13:42.120Z,5.90
2019-05-13T21:16:11.422Z,5.80
2019-05-13T21:18:42.081Z,5.70
2019-05-13T21:21:11.616Z,5.60
2019-05-13T21:23:41.766Z,5.50
2019-05-13T21:26:14.727Z,5.40
2019-05-13T21:28:41.872Z,5.30
2019-05-13T21:31:11.323Z,5.20
2019-05-13T21:33:39.973Z,5.20
2019-05-13T21:36:08.353Z,5.10
2019-05-13T21:38:36.811Z,5.00
2019-05-13T21:41:06.855Z,4.90
2019-05-13T21:43:35.251Z,4.90
2019-05-13T21:46:03.638Z,4.80
2019-05-13T21:48:32.647Z,4.80
2019-05-13T21:51:01.257Z,4.70
2019-05-13T21:53:32.346Z,4.60
2019-05-13T21:56:02.115Z,4.60
2019-05-13T21:58:31.260Z,4.60
2019-05-13T22:01:01.536Z,4.60
2019-05-13T22:03:33.249Z,4.50
2019-05-13T22:06:01.942Z,4.50
2019-05-13T22:08:32.057Z,4.50
2019-05-13T22:11:01.739Z,4.40
2019-05-13T22:13:31.589Z,4.50
2019-05-13T22:16:01.687Z,4.50
2019-05-13T22:18:31.355Z,4.50
2019-05-13T22:21:01.409Z,4.50
2019-05-13T22:23:32.067Z,4.50
2019-05-13T22:26:01.586Z,4.50
2019-05-13T22:28:31.256Z,4.50
2019-05-13T22:31:01.300Z,4.40
2019-05-13T22:33:32.290Z,4.30
2019-05-13T22:36:01.643Z,4.20
2019-05-13T22:38:32.419Z,4.20
2019-05-13T22:41:01.365Z,4.20
2019-05-13T22:43:32.000Z,4.20
2019-05-13T22:45:59.983Z,4.20
2019-05-13T22:48:28.462Z,4.10
2019-05-13T22:50:56.855Z,4.10
2019-05-13T22:53:25.306Z,4.10
2019-05-13T22:55:53.716Z,4.00
2019-05-13T22:58:22.559Z,4.00
2019-05-13T23:00:51.671Z,3.90
2019-05-13T23:03:20.250Z,3.80
2019-05-13T23:05:48.642Z,3.70
2019-05-13T23:08:17.032Z,3.60
2019-05-13T23:10:45.566Z,3.50
2019-05-13T23:13:13.976Z,3.50
2019-05-13T23:15:42.370Z,3.40
2019-05-13T23:18:11.744Z,3.30
2019-05-13T23:20:41.066Z,3.30
2019-05-13T23:23:11.629Z,3.20
2019-05-13T23:25:40.951Z,3.20
2019-05-13T23:28:11.232Z,3.10
2019-05-13T23:30:41.614Z,3.10
2019-05-13T23:33:11.583Z,3.00
2019-05-13T23:35:41.887Z,3.00
2019-05-13T23:38:10.271Z,2.90
2019-05-13T23:40:38.695Z,2.90
2019-05-13T23:43:07.159Z,2.80
2019-05-13T23:45:35.571Z,2.80
2019-05-13T23:48:04.122Z,2.80
2019-05-13T23:50:32.531Z,2.80
2019-05-13T23:53:01.060Z,2.80
2019-05-13T23:55:29.453Z,2.70
2019-05-13T23:57:57.866Z,2.70
